sensor_id;sensor_type;location;lat;lon;timestamp;pressure;altitude;pressure_sealevel;temperature;humidity
11487;BME280;10510;47.942;9.442;2023-02-15T00:01:20;95833.59;;;-3.07;100.00
11487;BME280;10510;47.942;9.442;2023-02-15T00:03:21;95826.88;;;-3.09;100.00
11487;BME280;10510;47.942;9.442;2023-02-15T00:05:21;95820.13;;;-3.10;100.00
11487;BME280;10510;47.942;9.442;2023-02-15T00:07:21;95828.63;;;-3.10;100.00
11487;BME280;10510;47.942;9.442;2023-02-15T00:09:22;95826.97;;;-3.11;100.00
11487;BME280;10510;47.942;9.442;2023-02-15T00:11:22;95827.81;;;-3.10;100.00
11487;BME280;10510;47.942;9.442;2023-02-15T00:13:41;95824.31;;;-3.09;100.00
11487;BME280;10510;47.942;9.442;2023-02-15T00:15:41;95825.91;;;-3.07;100.00
11487;BME280;10510;47.942;9.442;2023-02-15T00:17:41;95818.19;;;-3.05;100.00
11487;BME280;10510;47.942;9.442;2023-02-15T00:19:42;95818.91;;;-3.03;100.00
11487;BME280;10510;47.942;9.442;2023-02-15T00:21:43;95818.03;;;-3.02;100.00
11487;BME280;10510;47.942;9.442;2023-02-15T00:23:43;95811.19;;;-3.02;100.00
11487;BME280;10510;47.942;9.442;2023-02-15T00:25:43;95816.22;;;-3.00;100.00
11487;BME280;10510;47.942;9.442;2023-02-15T00:27:44;95814.66;;;-3.03;100.00
11487;BME280;10510;47.942;9.442;2023-02-15T00:29:44;95803.66;;;-3.05;100.00
11487;BME280;10510;47.942;9.442;2023-02-15T00:31:45;95807.88;;;-3.04;100.00
11487;BME280;10510;47.942;9.442;2023-02-15T00:33:45;95804.44;;;-3.03;100.00
11487;BME280;10510;47.942;9.442;2023-02-15T00:35:46;95806.13;;;-3.03;100.00
11487;BME280;10510;47.942;9.442;2023-02-15T00:37:46;95804.56;;;-3.06;100.00
11487;BME280;10510;47.942;9.442;2023-02-15T00:39:46;95796.13;;;-3.08;100.00
11487;BME280;10510;47.942;9.442;2023-02-15T00:41:47;95796.03;;;-3.06;100.00
11487;BME280;10510;47.942;9.442;2023-02-15T00:43:47;95803.03;;;-3.10;100.00
11487;BME280;10510;47.942;9.442;2023-02-15T00:45:48;95794.69;;;-3.13;100.00
11487;BME280;10510;47.942;9.442;2023-02-15T00:47:48;95791.47;;;-3.17;100.00
11487;BME280;10510;47.942;9.442;2023-02-15T00:49:48;95788.22;;;-3.21;100.00
11487;BME280;10510;47.942;9.442;2023-02-15T00:51:48;95796.88;;;-3.23;100.00
11487;BME280;10510;47.942;9.442;2023-02-15T00:53:49;95792.63;;;-3.24;100.00
11487;BME280;10510;47.942;9.442;2023-02-15T00:55:49;95789.38;;;-3.28;100.00
11487;BME280;10510;47.942;9.442;2023-02-15T00:57:49;95793.69;;;-3.28;100.00
11487;BME280;10510;47.942;9.442;2023-02-15T00:59:50;95785.25;;;-3.30;100.00
11487;BME280;10510;47.942;9.442;2023-02-15T01:01:50;95788.91;;;-3.36;100.00
11487;BME280;10510;47.942;9.442;2023-02-15T01:03:50;95783.13;;;-3.39;100.00
11487;BME280;10510;47.942;9.442;2023-02-15T01:05:51;95775.69;;;-3.44;100.00
11487;BME280;10510;47.942;9.442;2023-02-15T01:07:51;95777.47;;;-3.46;100.00
11487;BME280;10510;47.942;9.442;2023-02-15T01:09:51;95787.75;;;-3.48;100.00
11487;BME280;10510;47.942;9.442;2023-02-15T01:11:51;95783.59;;;-3.50;100.00
11487;BME280;10510;47.942;9.442;2023-02-15T01:13:54;95776.97;;;-3.54;100.00
11487;BME280;10510;47.942;9.442;2023-02-15T01:15:55;95775.38;;;-3.57;100.00
11487;BME280;10510;47.942;9.442;2023-02-15T01:17:55;95781.31;;;-3.56;100.00
11487;BME280;10510;47.942;9.442;2023-02-15T01:19:56;95778.91;;;-3.59;100.00
11487;BME280;10510;47.942;9.442;2023-02-15T01:21:56;95782.38;;;-3.60;100.00
11487;BME280;10510;47.942;9.442;2023-02-15T01:23:56;95778.22;;;-3.63;100.00
11487;BME280;10510;47.942;9.442;2023-02-15T01:26:01;95784.31;;;-3.66;100.00
11487;BME280;10510;47.942;9.442;2023-02-15T01:28:02;95780.16;;;-3.68;100.00
11487;BME280;10510;47.942;9.442;2023-02-15T01:30:03;95779.41;;;-3.70;100.00
11487;BME280;10510;47.942;9.442;2023-02-15T01:32:04;95777.00;;;-3.73;100.00
11487;BME280;10510;47.942;9.442;2023-02-15T01:34:04;95785.50;;;-3.73;100.00
11487;BME280;10510;47.942;9.442;2023-02-15T01:36:05;95774.50;;;-3.75;100.00
11487;BME280;10510;47.942;9.442;2023-02-15T01:38:05;95777.28;;;-3.79;100.00
11487;BME280;10510;47.942;9.442;2023-02-15T01:40:08;95781.66;;;-3.83;100.00
11487;BME280;10510;47.942;9.442;2023-02-15T01:42:12;95787.75;;;-3.85;100.00
11487;BME280;10510;47.942;9.442;2023-02-15T01:46:51;95776.97;;;-3.92;100.00
11487;BME280;10510;47.942;9.442;2023-02-15T01:49:03;95780.50;;;-3.95;100.00
11487;BME280;10510;47.942;9.442;2023-02-15T01:51:08;95774.56;;;-3.95;100.00
11487;BME280;10510;47.942;9.442;2023-02-15T01:53:20;95772.97;;;-3.98;100.00
11487;BME280;10510;47.942;9.442;2023-02-15T01:55:25;95774.69;;;-3.98;100.00
11487;BME280;10510;47.942;9.442;2023-02-15T01:57:27;95772.28;;;-4.01;100.00
11487;BME280;10510;47.942;9.442;2023-02-15T01:59:28;95779.16;;;-4.03;100.00
11487;BME280;10510;47.942;9.442;2023-02-15T02:01:30;95773.38;;;-4.07;100.00
11487;BME280;10510;47.942;9.442;2023-02-15T02:03:56;95774.34;;;-4.09;100.00
11487;BME280;10510;47.942;9.442;2023-02-15T02:05:58;95771.88;;;-4.11;100.00
11487;BME280;10510;47.942;9.442;2023-02-15T02:07:59;95777.94;;;-4.14;100.00
11487;BME280;10510;47.942;9.442;2023-02-15T02:10:02;95766.94;;;-4.16;100.00
11487;BME280;10510;47.942;9.442;2023-02-15T02:12:03;95773.78;;;-4.16;100.00
11487;BME280;10510;47.942;9.442;2023-02-15T02:14:04;95771.16;;;-4.15;100.00
11487;BME280;10510;47.942;9.442;2023-02-15T02:18:19;95766.88;;;-4.14;100.00
11487;BME280;10510;47.942;9.442;2023-02-15T02:20:43;95767.75;;;-4.15;100.00
11487;BME280;10510;47.942;9.442;2023-02-15T02:23:13;95761.00;;;-4.16;100.00
11487;BME280;10510;47.942;9.442;2023-02-15T02:25:23;95766.94;;;-4.16;100.00
11487;BME280;10510;47.942;9.442;2023-02-15T02:34:19;95772.75;;;-4.12;100.00
11487;BME280;10510;47.942;9.442;2023-02-15T02:36:41;95769.31;;;-4.11;100.00
11487;BME280;10510;47.942;9.442;2023-02-15T02:41:14;95779.66;;;-4.14;100.00
11487;BME280;10510;47.942;9.442;2023-02-15T02:43:35;95774.72;;;-4.19;100.00
11487;BME280;10510;47.942;9.442;2023-02-15T02:45:44;95773.09;;;-4.20;100.00
11487;BME280;10510;47.942;9.442;2023-02-15T02:47:54;95768.84;;;-4.21;100.00
11487;BME280;10510;47.942;9.442;2023-02-15T02:50:21;95767.22;;;-4.22;100.00
11487;BME280;10510;47.942;9.442;2023-02-15T02:54:42;95775.91;;;-4.26;100.00
11487;BME280;10510;47.942;9.442;2023-02-15T02:56:47;95775.91;;;-4.26;100.00
11487;BME280;10510;47.942;9.442;2023-02-15T02:58:54;95772.59;;;-4.28;100.00
11487;BME280;10510;47.942;9.442;2023-02-15T03:03:25;95771.81;;;-4.30;100.00
11487;BME280;10510;47.942;9.442;2023-02-15T03:05:29;95772.72;;;-4.31;100.00
11487;BME280;10510;47.942;9.442;2023-02-15T03:07:31;95765.19;;;-4.34;100.00
11487;BME280;10510;47.942;9.442;2023-02-15T03:09:39;95764.50;;;-4.38;100.00
11487;BME280;10510;47.942;9.442;2023-02-15T03:11:45;95762.91;;;-4.40;100.00
11487;BME280;10510;47.942;9.442;2023-02-15T03:13:48;95767.22;;;-4.42;100.00
11487;BME280;10510;47.942;9.442;2023-02-15T03:15:50;95770.81;;;-4.46;100.00
11487;BME280;10510;47.942;9.442;2023-02-15T03:18:10;95761.44;;;-4.46;100.00
11487;BME280;10510;47.942;9.442;2023-02-15T03:20:16;95767.38;;;-4.45;100.00
11487;BME280;10510;47.942;9.442;2023-02-15T03:22:22;95767.31;;;-4.44;100.00
11487;BME280;10510;47.942;9.442;2023-02-15T03:24:29;95765.59;;;-4.43;100.00
11487;BME280;10510;47.942;9.442;2023-02-15T03:26:34;95779.09;;;-4.41;100.00
11487;BME280;10510;47.942;9.442;2023-02-15T03:28:38;95771.44;;;-4.41;100.00
11487;BME280;10510;47.942;9.442;2023-02-15T03:30:45;95769.78;;;-4.42;100.00
11487;BME280;10510;47.942;9.442;2023-02-15T03:32:47;95781.72;;;-4.43;100.00
11487;BME280;10510;47.942;9.442;2023-02-15T03:34:48;95780.91;;;-4.43;100.00
11487;BME280;10510;47.942;9.442;2023-02-15T03:36:52;95785.19;;;-4.44;100.00
11487;BME280;10510;47.942;9.442;2023-02-15T03:39:07;95780.81;;;-4.42;100.00
11487;BME280;10510;47.942;9.442;2023-02-15T03:41:11;95778.13;;;-4.39;100.00
11487;BME280;10510;47.942;9.442;2023-02-15T03:43:21;95781.41;;;-4.35;100.00
11487;BME280;10510;47.942;9.442;2023-02-15T03:45:26;95782.97;;;-4.32;100.00
11487;BME280;10510;47.942;9.442;2023-02-15T03:47:36;95776.19;;;-4.32;100.00
11487;BME280;10510;47.942;9.442;2023-02-15T03:49:59;95776.91;;;-4.30;100.00
11487;BME280;10510;47.942;9.442;2023-02-15T03:52:02;95776.78;;;-4.27;100.00
11487;BME280;10510;47.942;9.442;2023-02-15T03:54:07;95773.28;;;-4.24;100.00
11487;BME280;10510;47.942;9.442;2023-02-15T03:56:08;95773.34;;;-4.26;100.00
11487;BME280;10510;47.942;9.442;2023-02-15T03:58:09;95769.13;;;-4.27;100.00
11487;BME280;10510;47.942;9.442;2023-02-15T04:00:27;95771.69;;;-4.27;100.00
11487;BME280;10510;47.942;9.442;2023-02-15T04:05:08;95764.91;;;-4.28;100.00
11487;BME280;10510;47.942;9.442;2023-02-15T04:07:09;95760.63;;;-4.27;100.00
11487;BME280;10510;47.942;9.442;2023-02-15T04:09:09;95764.22;;;-4.31;100.00
11487;BME280;10510;47.942;9.442;2023-02-15T04:11:28;95766.84;;;-4.33;100.00
11487;BME280;10510;47.942;9.442;2023-02-15T04:13:32;95776.34;;;-4.37;100.00
11487;BME280;10510;47.942;9.442;2023-02-15T04:15:32;95770.47;;;-4.39;100.00
11487;BME280;10510;47.942;9.442;2023-02-15T04:17:51;95774.84;;;-4.41;100.00
11487;BME280;10510;47.942;9.442;2023-02-15T04:19:51;95777.56;;;-4.45;100.00
11487;BME280;10510;47.942;9.442;2023-02-15T04:22:10;95771.69;;;-4.47;100.00
11487;BME280;10510;47.942;9.442;2023-02-15T04:24:29;95777.78;;;-4.50;100.00
11487;BME280;10510;47.942;9.442;2023-02-15T04:26:48;95780.38;;;-4.51;100.00
11487;BME280;10510;47.942;9.442;2023-02-15T04:28:48;95774.47;;;-4.52;100.00
11487;BME280;10510;47.942;9.442;2023-02-15T04:30:48;95774.38;;;-4.50;100.00
11487;BME280;10510;47.942;9.442;2023-02-15T04:32:49;95776.94;;;-4.50;100.00
11487;BME280;10510;47.942;9.442;2023-02-15T04:34:49;95775.28;;;-4.51;100.00
11487;BME280;10510;47.942;9.442;2023-02-15T04:36:49;95783.84;;;-4.52;100.00
11487;BME280;10510;47.942;9.442;2023-02-15T04:38:50;95780.44;;;-4.53;100.00
11487;BME280;10510;47.942;9.442;2023-02-15T04:40:51;95775.34;;;-4.53;100.00
11487;BME280;10510;47.942;9.442;2023-02-15T04:42:52;95778.66;;;-4.51;100.00
11487;BME280;10510;47.942;9.442;2023-02-15T04:44:52;95769.34;;;-4.52;100.00
11487;BME280;10510;47.942;9.442;2023-02-15T04:46:53;95772.88;;;-4.54;100.00
11487;BME280;10510;47.942;9.442;2023-02-15T04:48:53;95767.88;;;-4.58;100.00
11487;BME280;10510;47.942;9.442;2023-02-15T04:50:54;95767.13;;;-4.60;100.00
11487;BME280;10510;47.942;9.442;2023-02-15T04:52:54;95770.44;;;-4.58;100.00
11487;BME280;10510;47.942;9.442;2023-02-15T04:54:54;95770.44;;;-4.58;100.00
11487;BME280;10510;47.942;9.442;2023-02-15T04:56:54;95765.34;;;-4.58;100.00
11487;BME280;10510;47.942;9.442;2023-02-15T04:58:55;95770.34;;;-4.56;100.00
11487;BME280;10510;47.942;9.442;2023-02-15T05:00:56;95775.41;;;-4.54;100.00
11487;BME280;10510;47.942;9.442;2023-02-15T05:02:56;95766.84;;;-4.53;100.00
11487;BME280;10510;47.942;9.442;2023-02-15T05:04:57;95775.22;;;-4.50;100.00
11487;BME280;10510;47.942;9.442;2023-02-15T05:06:57;95776.09;;;-4.51;100.00
11487;BME280;10510;47.942;9.442;2023-02-15T05:08:57;95782.16;;;-4.53;100.00
11487;BME280;10510;47.942;9.442;2023-02-15T05:10:59;95768.78;;;-4.59;100.00
11487;BME280;10510;47.942;9.442;2023-02-15T05:12:59;95768.91;;;-4.62;100.00
11487;BME280;10510;47.942;9.442;2023-02-15T05:14:59;95768.19;;;-4.65;100.00
11487;BME280;10510;47.942;9.442;2023-02-15T05:16:59;95770.88;;;-4.68;100.00
11487;BME280;10510;47.942;9.442;2023-02-15T05:19:01;95768.44;;;-4.71;100.00
11487;BME280;10510;47.942;9.442;2023-02-15T05:21:02;95777.06;;;-4.74;100.00
11487;BME280;10510;47.942;9.442;2023-02-15T05:23:02;95775.41;;;-4.75;100.00
11487;BME280;10510;47.942;9.442;2023-02-15T05:25:02;95775.41;;;-4.75;100.00
11487;BME280;10510;47.942;9.442;2023-02-15T05:27:21;95773.75;;;-4.76;100.00
11487;BME280;10510;47.942;9.442;2023-02-15T05:29:40;95765.06;;;-4.72;100.00
11487;BME280;10510;47.942;9.442;2023-02-15T05:31:40;95773.56;;;-4.71;100.00
11487;BME280;10510;47.942;9.442;2023-02-15T05:33:41;95772.81;;;-4.73;100.00
11487;BME280;10510;47.942;9.442;2023-02-15T05:35:41;95771.13;;;-4.74;100.00
11487;BME280;10510;47.942;9.442;2023-02-15T05:37:41;95768.56;;;-4.74;100.00
11487;BME280;10510;47.942;9.442;2023-02-15T05:39:41;95768.56;;;-4.74;100.00
11487;BME280;10510;47.942;9.442;2023-02-15T05:41:42;95771.09;;;-4.73;100.00
11487;BME280;10510;47.942;9.442;2023-02-15T05:43:42;95765.91;;;-4.71;100.00
11487;BME280;10510;47.942;9.442;2023-02-15T05:45:51;95763.91;;;-4.65;100.00
11487;BME280;10510;47.942;9.442;2023-02-15T05:47:51;95760.50;;;-4.64;100.00
11487;BME280;10510;47.942;9.442;2023-02-15T05:49:52;95767.19;;;-4.61;100.00
11487;BME280;10510;47.942;9.442;2023-02-15T05:51:52;95757.72;;;-4.59;100.00
11487;BME280;10510;47.942;9.442;2023-02-15T05:53:52;95753.47;;;-4.59;100.00
11487;BME280;10510;47.942;9.442;2023-02-15T05:55:53;95750.16;;;-4.61;100.00
11487;BME280;10510;47.942;9.442;2023-02-15T05:57:57;95752.72;;;-4.61;100.00
11487;BME280;10510;47.942;9.442;2023-02-15T05:59:57;95754.34;;;-4.60;100.00
11487;BME280;10510;47.942;9.442;2023-02-15T06:01:57;95762.00;;;-4.60;100.00
11487;BME280;10510;47.942;9.442;2023-02-15T06:03:58;95757.72;;;-4.59;100.00
11487;BME280;10510;47.942;9.442;2023-02-15T06:05:58;95757.69;;;-4.58;100.00
11487;BME280;10510;47.942;9.442;2023-02-15T06:07:58;95755.19;;;-4.59;100.00
11487;BME280;10510;47.942;9.442;2023-02-15T06:09:58;95762.09;;;-4.61;100.00
11487;BME280;10510;47.942;9.442;2023-02-15T06:11:59;95760.41;;;-4.62;100.00
11487;BME280;10510;47.942;9.442;2023-02-15T06:13:59;95765.47;;;-4.61;100.00
11487;BME280;10510;47.942;9.442;2023-02-15T06:15:59;95764.56;;;-4.60;100.00
11487;BME280;10510;47.942;9.442;2023-02-15T06:18:00;95768.78;;;-4.59;100.00
11487;BME280;10510;47.942;9.442;2023-02-15T06:20:00;95772.78;;;-4.53;100.00
11487;BME280;10510;47.942;9.442;2023-02-15T06:22:00;95777.84;;;-4.51;100.00
11487;BME280;10510;47.942;9.442;2023-02-15T06:24:01;95781.28;;;-4.52;100.00
11487;BME280;10510;47.942;9.442;2023-02-15T06:26:01;95786.41;;;-4.52;100.00
11487;BME280;10510;47.942;9.442;2023-02-15T06:28:01;95782.13;;;-4.52;100.00
11487;BME280;10510;47.942;9.442;2023-02-15T06:30:02;95798.31;;;-4.53;100.00
11487;BME280;10510;47.942;9.442;2023-02-15T06:32:03;95808.59;;;-4.54;100.00
11487;BME280;10510;47.942;9.442;2023-02-15T06:34:04;95801.19;;;-4.61;100.00
11487;BME280;10510;47.942;9.442;2023-02-15T06:36:04;95797.72;;;-4.60;100.00
11487;BME280;10510;47.942;9.442;2023-02-15T06:38:05;95799.47;;;-4.60;100.00
11487;BME280;10510;47.942;9.442;2023-02-15T06:40:06;95797.72;;;-4.60;100.00
11487;BME280;10510;47.942;9.442;2023-02-15T06:42:06;95797.81;;;-4.61;100.00
11487;BME280;10510;47.942;9.442;2023-02-15T06:44:07;95796.09;;;-4.61;100.00
11487;BME280;10510;47.942;9.442;2023-02-15T06:46:07;95794.34;;;-4.60;100.00
11487;BME280;10510;47.942;9.442;2023-02-15T06:48:07;95794.31;;;-4.59;100.00
11487;BME280;10510;47.942;9.442;2023-02-15T06:50:08;95795.06;;;-4.57;100.00
11487;BME280;10510;47.942;9.442;2023-02-15T06:52:09;95790.72;;;-4.54;100.00
11487;BME280;10510;47.942;9.442;2023-02-15T06:54:09;95786.53;;;-4.55;100.00
11487;BME280;10510;47.942;9.442;2023-02-15T06:56:10;95798.31;;;-4.53;100.00
11487;BME280;10510;47.942;9.442;2023-02-15T06:58:11;95799.91;;;-4.50;100.00
11487;BME280;10510;47.942;9.442;2023-02-15T07:00:11;95793.84;;;-4.48;100.00
11487;BME280;10510;47.942;9.442;2023-02-15T07:02:12;95792.19;;;-4.49;100.00
11487;BME280;10510;47.942;9.442;2023-02-15T07:04:13;95787.91;;;-4.48;100.00
11487;BME280;10510;47.942;9.442;2023-02-15T07:06:13;95794.06;;;-4.52;100.00
11487;BME280;10510;47.942;9.442;2023-02-15T07:08:13;95795.81;;;-4.54;100.00
11487;BME280;10510;47.942;9.442;2023-02-15T07:10:13;95804.25;;;-4.52;100.00
11487;BME280;10510;47.942;9.442;2023-02-15T07:12:14;95795.81;;;-4.54;100.00
11487;BME280;10510;47.942;9.442;2023-02-15T07:14:32;95801.56;;;-4.49;100.00
11487;BME280;10510;47.942;9.442;2023-02-15T07:16:33;95801.44;;;-4.46;100.00
11487;BME280;10510;47.942;9.442;2023-02-15T07:18:33;95816.63;;;-4.43;100.00
11487;BME280;10510;47.942;9.442;2023-02-15T07:20:33;95808.03;;;-4.41;100.00
11487;BME280;10510;47.942;9.442;2023-02-15T07:22:35;95811.28;;;-4.37;100.00
11487;BME280;10510;47.942;9.442;2023-02-15T07:24:38;95816.25;;;-4.34;100.00
11487;BME280;10510;47.942;9.442;2023-02-15T07:26:39;95812.78;;;-4.33;100.00
11487;BME280;10510;47.942;9.442;2023-02-15T07:28:39;95812.75;;;-4.31;100.00
11487;BME280;10510;47.942;9.442;2023-02-15T07:30:39;95811.00;;;-4.31;100.00
11487;BME280;10510;47.942;9.442;2023-02-15T07:32:40;95810.06;;;-4.28;100.00
11487;BME280;10510;47.942;9.442;2023-02-15T07:35:00;95810.81;;;-4.26;100.00
11487;BME280;10510;47.942;9.442;2023-02-15T07:37:01;95805.59;;;-4.23;100.00
11487;BME280;10510;47.942;9.442;2023-02-15T07:39:01;95808.69;;;-4.17;100.00
11487;BME280;10510;47.942;9.442;2023-02-15T07:41:04;95810.16;;;-4.11;100.00
11487;BME280;10510;47.942;9.442;2023-02-15T07:43:04;95803.13;;;-4.06;100.00
11487;BME280;10510;47.942;9.442;2023-02-15T07:45:05;95804.53;;;-3.99;100.00
11487;BME280;10510;47.942;9.442;2023-02-15T07:47:05;95797.53;;;-3.95;100.00
11487;BME280;10510;47.942;9.442;2023-02-15T07:49:06;95794.94;;;-3.94;100.00
11487;BME280;10510;47.942;9.442;2023-02-15T07:51:07;95800.59;;;-3.87;100.00
11487;BME280;10510;47.942;9.442;2023-02-15T07:53:08;95801.00;;;-3.77;100.00
11487;BME280;10510;47.942;9.442;2023-02-15T07:55:09;95799.91;;;-3.72;100.00
11487;BME280;10510;47.942;9.442;2023-02-15T07:57:12;95797.84;;;-3.63;100.00
11487;BME280;10510;47.942;9.442;2023-02-15T07:59:13;95794.88;;;-3.54;100.00
11487;BME280;10510;47.942;9.442;2023-02-15T08:01:14;95795.28;;;-3.45;100.00
11487;BME280;10510;47.942;9.442;2023-02-15T08:03:14;95788.31;;;-3.41;100.00
11487;BME280;10510;47.942;9.442;2023-02-15T08:05:15;95793.16;;;-3.35;100.00
11487;BME280;10510;47.942;9.442;2023-02-15T08:07:16;95791.88;;;-3.26;100.00
11487;BME280;10510;47.942;9.442;2023-02-15T08:09:17;95780.47;;;-3.19;100.00
11487;BME280;10510;47.942;9.442;2023-02-15T08:11:21;95782.44;;;-3.07;100.00
11487;BME280;10510;47.942;9.442;2023-02-15T08:13:27;95771.09;;;-3.01;100.00
11487;BME280;10510;47.942;9.442;2023-02-15T08:15:27;95771.56;;;-2.93;100.00
11487;BME280;10510;47.942;9.442;2023-02-15T08:17:28;95768.19;;;-2.76;100.00
11487;BME280;10510;47.942;9.442;2023-02-15T08:19:29;95764.84;;;-2.61;100.00
11487;BME280;10510;47.942;9.442;2023-02-15T08:21:31;95767.91;;;-2.37;100.00
11487;BME280;10510;47.942;9.442;2023-02-15T08:23:31;95759.41;;;-2.04;100.00
11487;BME280;10510;47.942;9.442;2023-02-15T08:25:31;95762.41;;;-1.80;100.00
11487;BME280;10510;47.942;9.442;2023-02-15T08:27:32;95762.13;;;-1.58;100.00
11487;BME280;10510;47.942;9.442;2023-02-15T08:29:34;95757.72;;;-1.24;100.00
11487;BME280;10510;47.942;9.442;2023-02-15T08:31:35;95758.66;;;-0.95;100.00
11487;BME280;10510;47.942;9.442;2023-02-15T08:33:39;95759.78;;;-0.69;100.00
11487;BME280;10510;47.942;9.442;2023-02-15T08:35:39;95762.59;;;-0.43;100.00
11487;BME280;10510;47.942;9.442;2023-02-15T08:37:40;95760.03;;;-0.15;100.00
11487;BME280;10510;47.942;9.442;2023-02-15T08:39:40;95756.38;;;0.18;100.00
11487;BME280;10510;47.942;9.442;2023-02-15T08:41:44;95759.47;;;0.52;100.00
11487;BME280;10510;47.942;9.442;2023-02-15T08:43:48;95758.16;;;1.00;100.00
11487;BME280;10510;47.942;9.442;2023-02-15T08:45:48;95761.41;;;1.29;100.00
11487;BME280;10510;47.942;9.442;2023-02-15T08:47:48;95753.53;;;1.58;100.00
11487;BME280;10510;47.942;9.442;2023-02-15T08:49:49;95754.91;;;1.89;100.00
11487;BME280;10510;47.942;9.442;2023-02-15T08:51:51;95754.66;;;2.31;100.00
11487;BME280;10510;47.942;9.442;2023-02-15T08:53:53;95755.81;;;2.63;100.00
11487;BME280;10510;47.942;9.442;2023-02-15T08:55:58;95753.75;;;2.92;100.00
11487;BME280;10510;47.942;9.442;2023-02-15T08:57:59;95753.09;;;3.26;100.00
11487;BME280;10510;47.942;9.442;2023-02-15T08:59:59;95748.88;;;3.60;100.00
11487;BME280;10510;47.942;9.442;2023-02-15T09:02:00;95744.72;;;4.04;100.00
11487;BME280;10510;47.942;9.442;2023-02-15T09:04:02;95745.41;;;4.40;100.00
11487;BME280;10510;47.942;9.442;2023-02-15T09:06:04;95746.69;;;4.68;100.00
11487;BME280;10510;47.942;9.442;2023-02-15T09:08:05;95751.34;;;4.85;100.00
11487;BME280;10510;47.942;9.442;2023-02-15T09:10:06;95744.94;;;5.12;100.00
11487;BME280;10510;47.942;9.442;2023-02-15T09:12:06;95736.22;;;5.45;100.00
11487;BME280;10510;47.942;9.442;2023-02-15T09:14:10;95741.53;;;5.85;100.00
11487;BME280;10510;47.942;9.442;2023-02-15T09:16:13;95733.28;;;6.22;100.00
11487;BME280;10510;47.942;9.442;2023-02-15T09:18:13;95739.56;;;6.20;100.00
11487;BME280;10510;47.942;9.442;2023-02-15T09:20:17;95738.28;;;6.14;100.00
11487;BME280;10510;47.942;9.442;2023-02-15T09:22:17;95733.25;;;6.12;100.00
11487;BME280;10510;47.942;9.442;2023-02-15T09:24:17;95735.44;;;6.17;100.00
11487;BME280;10510;47.942;9.442;2023-02-15T09:26:20;95732.72;;;6.19;100.00
11487;BME280;10510;47.942;9.442;2023-02-15T09:28:21;95733.41;;;6.51;100.00
11487;BME280;10510;47.942;9.442;2023-02-15T09:30:21;95733.66;;;6.89;100.00
11487;BME280;10510;47.942;9.442;2023-02-15T09:32:21;95735.16;;;7.20;100.00
11487;BME280;10510;47.942;9.442;2023-02-15T09:34:22;95736.28;;;7.27;100.00
11487;BME280;10510;47.942;9.442;2023-02-15T09:36:25;95729.56;;;7.35;100.00
11487;BME280;10510;47.942;9.442;2023-02-15T09:38:26;95731.09;;;7.57;100.00
11487;BME280;10510;47.942;9.442;2023-02-15T09:40:27;95732.56;;;7.79;100.00
11487;BME280;10510;47.942;9.442;2023-02-15T09:42:51;95717.19;;;7.95;100.00
11487;BME280;10510;47.942;9.442;2023-02-15T09:45:21;95722.69;;;8.29;100.00
11487;BME280;10510;47.942;9.442;2023-02-15T09:51:57;95725.59;;;8.63;100.00
11487;BME280;10510;47.942;9.442;2023-02-15T09:56:31;95713.72;;;8.51;100.00
11487;BME280;10510;47.942;9.442;2023-02-15T09:58:46;95716.91;;;8.45;100.00
11487;BME280;10510;47.942;9.442;2023-02-15T10:01:00;95715.88;;;8.66;100.00
11487;BME280;10510;47.942;9.442;2023-02-15T10:03:40;95719.22;;;8.76;100.00
11487;BME280;10510;47.942;9.442;2023-02-15T10:17:44;95711.44;;;10.09;100.00
11487;BME280;10510;47.942;9.442;2023-02-15T10:25:01;95711.59;;;10.34;100.00
11487;BME280;10510;47.942;9.442;2023-02-15T10:27:15;95698.94;;;10.47;100.00
11487;BME280;10510;47.942;9.442;2023-02-15T10:29:36;95696.84;;;10.67;100.00
11487;BME280;10510;47.942;9.442;2023-02-15T10:31:51;95695.00;;;10.51;100.00
11487;BME280;10510;47.942;9.442;2023-02-15T10:38:34;95694.25;;;10.67;100.00
11487;BME280;10510;47.942;9.442;2023-02-15T10:51:40;95680.16;;;11.19;100.00
11487;BME280;10510;47.942;9.442;2023-02-15T10:56:36;95682.56;;;10.96;100.00
11487;BME280;10510;47.942;9.442;2023-02-15T11:01:34;95674.69;;;10.87;100.00
11487;BME280;10510;47.942;9.442;2023-02-15T11:06:19;95661.38;;;11.40;100.00
11487;BME280;10510;47.942;9.442;2023-02-15T11:08:20;95653.19;;;11.59;100.00
11487;BME280;10510;47.942;9.442;2023-02-15T11:10:43;95659.88;;;11.78;100.00
11487;BME280;10510;47.942;9.442;2023-02-15T11:12:46;95645.13;;;12.01;100.00
11487;BME280;10510;47.942;9.442;2023-02-15T11:14:58;95635.75;;;12.15;100.00
11487;BME280;10510;47.942;9.442;2023-02-15T11:17:06;95634.63;;;12.18;100.00
11487;BME280;10510;47.942;9.442;2023-02-15T11:19:16;95637.81;;;12.36;100.00
11487;BME280;10510;47.942;9.442;2023-02-15T11:21:26;95639.91;;;12.41;100.00
11487;BME280;10510;47.942;9.442;2023-02-15T11:23:27;95637.72;;;12.53;100.00
11487;BME280;10510;47.942;9.442;2023-02-15T11:25:33;95638.00;;;12.66;100.00
11487;BME280;10510;47.942;9.442;2023-02-15T11:27:34;95631.25;;;12.71;100.00
11487;BME280;10510;47.942;9.442;2023-02-15T11:29:52;95627.75;;;12.79;100.00
11487;BME280;10510;47.942;9.442;2023-02-15T11:31:57;95627.41;;;12.82;100.00
11487;BME280;10510;47.942;9.442;2023-02-15T11:34:03;95624.88;;;12.97;100.00
11487;BME280;10510;47.942;9.442;2023-02-15T11:36:11;95619.09;;;13.33;100.00
11487;BME280;10510;47.942;9.442;2023-02-15T11:38:22;95614.03;;;13.46;100.00
11487;BME280;10510;47.942;9.442;2023-02-15T11:40:35;95621.34;;;13.74;100.00
11487;BME280;10510;47.942;9.442;2023-02-15T11:42:35;95620.38;;;14.04;100.00
11487;BME280;10510;47.942;9.442;2023-02-15T11:45:02;95614.81;;;14.44;100.00
11487;BME280;10510;47.942;9.442;2023-02-15T11:47:10;95614.56;;;14.39;100.00
11487;BME280;10510;47.942;9.442;2023-02-15T11:49:22;95617.56;;;14.36;100.00
11487;BME280;10510;47.942;9.442;2023-02-15T11:51:24;95611.47;;;14.35;100.00
11487;BME280;10510;47.942;9.442;2023-02-15T11:53:26;95617.56;;;14.36;100.00
11487;BME280;10510;47.942;9.442;2023-02-15T11:55:28;95611.22;;;14.30;100.00
11487;BME280;10510;47.942;9.442;2023-02-15T11:57:38;95610.22;;;14.31;100.00